Time;durP1;ratioP1;P1;durP2;ratioP2;P2;SDS_P1;SDS_P2;PMS_P1;PMS_P2;Temp;Humidity;BMP_temperature;BMP_pressure;BME280_temperature;BME280_humidity;BME280_pressure;Samples;Min_cycle;Max_cycle;Signal;HPM_P1;HPM_P2
2024/02/06 00:00:50;;;;;;;8.75;4.72;;;;;;;;;;2081798;28;20028;-51
2024/02/06 00:01:51;;;;;;;9.23;5.13;;;;;;;;;;2083406;28;20013;-52
2024/02/06 00:02:52;;;;;;;12.38;5.53;;;;;;;;;;2090063;28;20082;-52
2024/02/06 00:03:54;;;;;;;9.60;5.18;;;;;;;;;;2081771;28;20040;-51
2024/02/06 00:04:55;;;;;;;9.80;5.13;;;;;;;;;;2081241;28;20109;-52
2024/02/06 00:05:57;;;;;;;9.15;4.45;;;;;;;;;;2081428;28;20482;-50
2024/02/06 00:06:58;;;;;;;10.68;5.07;;;;;;;;;;2080040;28;20464;-53
2024/02/06 00:07:59;;;;;;;9.57;4.75;;;;;;;;;;2081449;28;20026;-46
2024/02/06 00:09:01;;;;;;;9.13;4.70;;;;;;;;;;2081764;28;20441;-53
2024/02/06 00:10:02;;;;;;;10.13;4.93;;;;;;;;;;2081350;28;20472;-52
2024/02/06 00:11:04;;;;;;;7.38;4.40;;;;;;;;;;2079960;28;20049;-53
2024/02/06 00:12:06;;;;;;;9.50;4.75;;;;;;;;;;2081760;28;20021;-55
2024/02/06 00:13:07;;;;;;;7.72;4.78;;;;;;;;;;2073610;28;20018;-54
2024/02/06 00:14:10;;;;;;;11.32;4.75;;;;;;;;;;2072931;28;20480;-54
2024/02/06 00:15:11;;;;;;;10.30;4.80;;;;;;;;;;2077594;28;20043;-52
2024/02/06 00:16:13;;;;;;;9.75;4.78;;;;;;;;;;2079168;28;21634;-54
2024/02/06 00:17:14;;;;;;;8.98;4.78;;;;;;;;;;2073694;28;20484;-52
2024/02/06 00:18:16;;;;;;;9.32;5.05;;;;;;;;;;2072829;28;20401;-54
2024/02/06 00:19:17;;;;;;;7.68;4.20;;;;;;;;;;2074136;28;20029;-51
2024/02/06 00:20:19;;;;;;;8.15;4.28;;;;;;;;;;2081765;28;20025;-54
2024/02/06 00:21:22;;;;;;;8.65;4.53;;;;;;;;;;2077050;28;20392;-51
2024/02/06 00:22:23;;;;;;;6.95;3.88;;;;;;;;;;2073505;28;20026;-55
2024/02/06 00:23:25;;;;;;;7.70;3.92;;;;;;;;;;2073607;28;20038;-52
2024/02/06 00:24:26;;;;;;;5.95;4.40;;;;;;;;;;2077211;28;20029;-52
2024/02/06 00:25:27;;;;;;;9.90;4.75;;;;;;;;;;2081734;28;20112;-51
2024/02/06 00:26:28;;;;;;;8.45;4.50;;;;;;;;;;2080699;28;20060;-53
2024/02/06 00:27:30;;;;;;;10.52;4.25;;;;;;;;;;2081398;28;20018;-55
2024/02/06 00:28:31;;;;;;;10.07;4.07;;;;;;;;;;2081710;28;20025;-50
2024/02/06 00:29:32;;;;;;;8.30;4.35;;;;;;;;;;2081380;28;20104;-52
2024/02/06 00:30:33;;;;;;;9.48;5.25;;;;;;;;;;2081377;28;20492;-52
2024/02/06 00:31:35;;;;;;;9.13;4.93;;;;;;;;;;2081900;28;20037;-52
2024/02/06 00:32:36;;;;;;;6.93;4.25;;;;;;;;;;2081134;28;20496;-54
2024/02/06 00:33:37;;;;;;;8.63;4.85;;;;;;;;;;2081777;28;20017;-54
2024/02/06 00:34:38;;;;;;;11.50;4.70;;;;;;;;;;2080759;28;20017;-53
2024/02/06 00:35:40;;;;;;;9.05;4.05;;;;;;;;;;2081070;28;20479;-54
2024/02/06 00:36:41;;;;;;;9.10;5.10;;;;;;;;;;2081777;28;20132;-54
2024/02/06 00:37:44;;;;;;;9.32;4.88;;;;;;;;;;2081309;28;20641;-52
2024/02/06 00:38:45;;;;;;;8.07;4.80;;;;;;;;;;2080810;28;20831;-52
2024/02/06 00:39:47;;;;;;;9.45;4.47;;;;;;;;;;2081586;28;20024;-53
2024/02/06 00:40:48;;;;;;;9.65;5.25;;;;;;;;;;2081435;28;20028;-54
2024/02/06 00:41:49;;;;;;;9.02;5.47;;;;;;;;;;2081333;28;20120;-51
2024/02/06 00:42:50;;;;;;;10.98;4.57;;;;;;;;;;2081945;28;20049;-51
2024/02/06 00:43:51;;;;;;;8.48;4.35;;;;;;;;;;2080869;28;20125;-48
2024/02/06 00:44:53;;;;;;;7.50;4.75;;;;;;;;;;2081825;28;20020;-46
2024/02/06 00:45:54;;;;;;;9.82;5.28;;;;;;;;;;2080341;28;20032;-46
2024/02/06 00:46:55;;;;;;;8.00;5.10;;;;;;;;;;2081311;28;20411;-46
2024/02/06 00:47:57;;;;;;;9.68;4.65;;;;;;;;;;2080481;28;20468;-46
2024/02/06 00:48:58;;;;;;;8.02;4.93;;;;;;;;;;2073410;28;20033;-46
2024/02/06 00:49:59;;;;;;;6.55;4.57;;;;;;;;;;2081056;28;20380;-47
2024/02/06 00:51:00;;;;;;;9.40;4.70;;;;;;;;;;2081234;28;20136;-48
2024/02/06 00:52:02;;;;;;;8.93;4.55;;;;;;;;;;2073257;28;20041;-47
2024/02/06 00:53:03;;;;;;;9.77;4.93;;;;;;;;;;2079743;28;20559;-53
2024/02/06 00:54:04;;;;;;;8.27;4.65;;;;;;;;;;2080796;28;20025;-52
2024/02/06 00:55:06;;;;;;;9.52;4.65;;;;;;;;;;2080881;28;20025;-53
2024/02/06 00:56:07;;;;;;;9.95;5.07;;;;;;;;;;2081077;28;20383;-54
2024/02/06 00:57:09;;;;;;;9.07;5.03;;;;;;;;;;2080468;28;20025;-53
2024/02/06 00:58:10;;;;;;;8.73;4.60;;;;;;;;;;2089037;28;20451;-52
2024/02/06 00:59:11;;;;;;;10.35;4.97;;;;;;;;;;2079100;28;20045;-51
2024/02/06 01:00:13;;;;;;;9.57;4.57;;;;;;;;;;2079635;28;20418;-52
2024/02/06 01:01:14;;;;;;;9.63;4.60;;;;;;;;;;2080501;28;20087;-52
2024/02/06 01:02:15;;;;;;;7.63;4.47;;;;;;;;;;2073224;28;20061;-52
2024/02/06 01:03:16;;;;;;;8.55;4.38;;;;;;;;;;2076022;28;20032;-52
2024/02/06 01:04:18;;;;;;;6.85;4.20;;;;;;;;;;2081242;28;20373;-53
2024/02/06 01:05:19;;;;;;;8.93;4.63;;;;;;;;;;2080527;28;20018;-52
2024/02/06 01:06:21;;;;;;;11.10;4.72;;;;;;;;;;2080484;28;20014;-54
2024/02/06 01:07:22;;;;;;;8.70;4.40;;;;;;;;;;2081392;28;20052;-53
2024/02/06 01:08:24;;;;;;;7.95;4.13;;;;;;;;;;2080670;28;20109;-50
2024/02/06 01:09:25;;;;;;;6.75;3.97;;;;;;;;;;2072410;28;20112;-53
2024/02/06 01:10:26;;;;;;;10.07;4.50;;;;;;;;;;2080792;28;20085;-50
2024/02/06 01:11:28;;;;;;;8.35;4.90;;;;;;;;;;2076871;28;20113;-52
2024/02/06 01:12:29;;;;;;;7.32;3.88;;;;;;;;;;2072628;28;20019;-52
2024/02/06 01:13:30;;;;;;;6.38;4.10;;;;;;;;;;2080424;28;20480;-46
2024/02/06 01:14:31;;;;;;;7.20;3.90;;;;;;;;;;2079026;28;20018;-46
2024/02/06 01:15:33;;;;;;;9.93;4.28;;;;;;;;;;2073004;28;20104;-46
2024/02/06 01:16:34;;;;;;;9.15;3.92;;;;;;;;;;2078923;28;20018;-46
2024/02/06 01:17:36;;;;;;;9.68;4.30;;;;;;;;;;2075911;28;20492;-46
2024/02/06 01:18:37;;;;;;;7.78;4.38;;;;;;;;;;2080838;28;20369;-47
2024/02/06 01:19:38;;;;;;;9.88;4.53;;;;;;;;;;2080513;28;20021;-47
2024/02/06 01:20:40;;;;;;;9.02;4.22;;;;;;;;;;2079713;28;20075;-47
2024/02/06 01:21:41;;;;;;;8.60;3.97;;;;;;;;;;2081225;28;20534;-46
2024/02/06 01:22:42;;;;;;;7.28;4.03;;;;;;;;;;2080914;28;20037;-46
2024/02/06 01:23:43;;;;;;;8.85;4.32;;;;;;;;;;2080854;28;20040;-46
2024/02/06 01:24:45;;;;;;;10.38;4.53;;;;;;;;;;2080533;28;20698;-48
2024/02/06 01:25:48;;;;;;;8.35;4.47;;;;;;;;;;2074834;28;20037;-47
2024/02/06 01:26:49;;;;;;;8.52;4.00;;;;;;;;;;2080981;28;20376;-47
2024/02/06 01:27:50;;;;;;;6.90;4.47;;;;;;;;;;2081207;28;20048;-46
2024/02/06 01:28:52;;;;;;;8.45;4.03;;;;;;;;;;2075874;28;20018;-46
2024/02/06 01:29:53;;;;;;;7.90;4.32;;;;;;;;;;2080842;28;20017;-46
2024/02/06 01:30:54;;;;;;;6.72;4.38;;;;;;;;;;2080944;28;20018;-47
2024/02/06 01:31:55;;;;;;;6.88;4.10;;;;;;;;;;2077132;28;20042;-45
2024/02/06 01:32:57;;;;;;;7.35;4.75;;;;;;;;;;2079799;28;20056;-47
2024/02/06 01:33:58;;;;;;;8.95;4.88;;;;;;;;;;2081136;28;20112;-47
2024/02/06 01:34:59;;;;;;;8.70;4.70;;;;;;;;;;2080816;28;20033;-47
2024/02/06 01:36:00;;;;;;;9.65;4.35;;;;;;;;;;2080862;28;20037;-47
2024/02/06 01:37:02;;;;;;;8.95;4.40;;;;;;;;;;2080717;28;20018;-47
2024/02/06 01:38:03;;;;;;;9.80;5.03;;;;;;;;;;2080263;28;20033;-47
2024/02/06 01:39:05;;;;;;;12.02;4.72;;;;;;;;;;2077099;28;20041;-47
2024/02/06 01:40:07;;;;;;;6.93;4.35;;;;;;;;;;2080440;28;20027;-47
2024/02/06 01:41:08;;;;;;;10.63;4.57;;;;;;;;;;2080515;28;20025;-47
2024/02/06 01:42:09;;;;;;;7.72;4.63;;;;;;;;;;2080782;28;20446;-46
2024/02/06 01:43:11;;;;;;;9.80;5.20;;;;;;;;;;2080754;28;20102;-46
2024/02/06 01:44:13;;;;;;;7.95;4.25;;;;;;;;;;2080791;28;20463;-46
2024/02/06 01:45:14;;;;;;;9.73;4.70;;;;;;;;;;2080318;28;20045;-46
2024/02/06 01:46:16;;;;;;;9.13;4.30;;;;;;;;;;2079924;28;20073;-46
2024/02/06 01:47:17;;;;;;;11.32;4.53;;;;;;;;;;2080719;28;20365;-46
2024/02/06 01:48:19;;;;;;;8.55;4.80;;;;;;;;;;2080134;28;20010;-46
2024/02/06 01:49:20;;;;;;;9.73;5.32;;;;;;;;;;2071999;28;20026;-46
2024/02/06 01:50:22;;;;;;;8.02;4.95;;;;;;;;;;2075991;28;20021;-46
2024/02/06 01:51:24;;;;;;;9.18;4.45;;;;;;;;;;2080142;28;20009;-46
2024/02/06 01:52:25;;;;;;;9.50;4.50;;;;;;;;;;2080236;28;20092;-46
2024/02/06 01:53:27;;;;;;;7.45;4.43;;;;;;;;;;2080817;28;20048;-47
2024/02/06 01:54:29;;;;;;;6.90;4.38;;;;;;;;;;2078644;28;20022;-46
2024/02/06 01:55:30;;;;;;;8.98;4.28;;;;;;;;;;2078700;28;20033;-45
2024/02/06 01:56:31;;;;;;;6.90;4.38;;;;;;;;;;2080629;28;20075;-46
2024/02/06 01:57:35;;;;;;;9.38;4.55;;;;;;;;;;2079693;28;20491;-46
2024/02/06 01:58:36;;;;;;;8.93;4.63;;;;;;;;;;2077729;28;20021;-46
2024/02/06 01:59:37;;;;;;;6.20;3.65;;;;;;;;;;2080863;28;20554;-46
2024/02/06 02:00:40;;;;;;;9.63;4.68;;;;;;;;;;2080997;28;20598;-46
2024/02/06 02:01:42;;;;;;;11.07;4.18;;;;;;;;;;2075816;28;20048;-54
2024/02/06 02:02:43;;;;;;;8.27;4.10;;;;;;;;;;2080567;28;20025;-51
2024/02/06 02:03:45;;;;;;;7.55;4.82;;;;;;;;;;2074162;28;20393;-47
2024/02/06 02:04:46;;;;;;;8.02;4.38;;;;;;;;;;2074706;28;20022;-47
2024/02/06 02:05:48;;;;;;;7.20;4.47;;;;;;;;;;2080824;28;20606;-46
2024/02/06 02:06:49;;;;;;;10.43;4.07;;;;;;;;;;2076589;28;20014;-48
2024/02/06 02:07:50;;;;;;;7.03;4.18;;;;;;;;;;2073441;28;20033;-48
2024/02/06 02:08:52;;;;;;;6.40;4.47;;;;;;;;;;2080928;28;20387;-48
2024/02/06 02:09:53;;;;;;;10.65;5.50;;;;;;;;;;2080668;28;20017;-48
2024/02/06 02:10:55;;;;;;;9.05;4.50;;;;;;;;;;2080245;28;20385;-48
2024/02/06 02:11:57;;;;;;;10.15;4.57;;;;;;;;;;2074469;28;20029;-48
2024/02/06 02:12:58;;;;;;;7.88;4.22;;;;;;;;;;2074711;28;20014;-47
2024/02/06 02:13:59;;;;;;;8.13;4.90;;;;;;;;;;2079443;28;20084;-47
2024/02/06 02:15:00;;;;;;;8.40;4.63;;;;;;;;;;2079943;28;20527;-47
2024/02/06 02:16:03;;;;;;;10.50;4.65;;;;;;;;;;2080701;28;20439;-49
2024/02/06 02:17:04;;;;;;;7.20;4.25;;;;;;;;;;2072515;28;20028;-47
2024/02/06 02:18:08;;;;;;;9.30;4.63;;;;;;;;;;2076999;28;20017;-46
2024/02/06 02:19:09;;;;;;;9.73;5.03;;;;;;;;;;2080027;28;20029;-46
2024/02/06 02:20:11;;;;;;;8.30;4.65;;;;;;;;;;2080743;28;20112;-47
2024/02/06 02:21:12;;;;;;;7.32;4.40;;;;;;;;;;2080547;28;20020;-46
2024/02/06 02:22:13;;;;;;;10.18;4.57;;;;;;;;;;2078838;28;20030;-46
2024/02/06 02:23:15;;;;;;;6.95;4.30;;;;;;;;;;2073796;28;20030;-47
2024/02/06 02:24:16;;;;;;;9.77;3.97;;;;;;;;;;2073793;28;20056;-46
2024/02/06 02:25:18;;;;;;;8.57;5.30;;;;;;;;;;2072818;28;20026;-46
2024/02/06 02:26:19;;;;;;;9.50;5.03;;;;;;;;;;2073029;28;20020;-46
2024/02/06 02:27:22;;;;;;;8.52;4.78;;;;;;;;;;2072625;28;20022;-46
2024/02/06 02:28:24;;;;;;;7.28;4.78;;;;;;;;;;2080603;28;20480;-46
2024/02/06 02:29:26;;;;;;;8.23;4.78;;;;;;;;;;2077629;28;20503;-46
2024/02/06 02:30:28;;;;;;;7.32;4.80;;;;;;;;;;2072863;28;20080;-46
2024/02/06 02:31:31;;;;;;;8.23;4.72;;;;;;;;;;2072545;28;20029;-46
2024/02/06 02:32:32;;;;;;;7.60;4.30;;;;;;;;;;2075799;28;20488;-46
2024/02/06 02:33:35;;;;;;;7.47;3.58;;;;;;;;;;2080884;28;20048;-50
2024/02/06 02:34:36;;;;;;;6.18;3.70;;;;;;;;;;2080680;28;20480;-50
2024/02/06 02:35:37;;;;;;;10.32;4.63;;;;;;;;;;2080214;28;20014;-52
2024/02/06 02:36:39;;;;;;;6.03;3.50;;;;;;;;;;2080865;28;20029;-51
2024/02/06 02:37:40;;;;;;;5.88;3.85;;;;;;;;;;2080346;28;20440;-50
2024/02/06 02:38:42;;;;;;;8.95;3.53;;;;;;;;;;2079882;28;20068;-50
2024/02/06 02:39:45;;;;;;;7.03;3.75;;;;;;;;;;2080270;28;20029;-51
2024/02/06 02:40:47;;;;;;;7.45;3.65;;;;;;;;;;2080645;28;20018;-53
2024/02/06 02:41:48;;;;;;;7.65;3.72;;;;;;;;;;2080425;28;20036;-46
2024/02/06 02:42:50;;;;;;;4.75;3.20;;;;;;;;;;2079005;28;20052;-50
2024/02/06 02:43:51;;;;;;;8.57;3.88;;;;;;;;;;2080434;28;20125;-49
2024/02/06 02:44:52;;;;;;;6.22;4.13;;;;;;;;;;2080192;28;20475;-51
2024/02/06 02:45:54;;;;;;;7.43;3.67;;;;;;;;;;2080031;28;20028;-52
2024/02/06 02:46:55;;;;;;;6.80;3.38;;;;;;;;;;2072385;28;20018;-51
2024/02/06 02:47:56;;;;;;;8.98;3.67;;;;;;;;;;2078996;28;20022;-52
2024/02/06 02:48:57;;;;;;;5.78;3.63;;;;;;;;;;2078607;28;20476;-52
2024/02/06 02:49:59;;;;;;;6.47;3.75;;;;;;;;;;2079986;28;20440;-53
2024/02/06 02:51:00;;;;;;;6.65;4.10;;;;;;;;;;2075011;28;20049;-53
2024/02/06 02:52:01;;;;;;;7.47;4.05;;;;;;;;;;2080373;28;20788;-46
2024/02/06 02:53:02;;;;;;;7.13;3.83;;;;;;;;;;2080929;28;20018;-50
2024/02/06 02:54:04;;;;;;;7.13;3.90;;;;;;;;;;2080494;28;20504;-51
2024/02/06 02:55:05;;;;;;;6.60;3.83;;;;;;;;;;2077996;28;20018;-54
2024/02/06 02:56:06;;;;;;;5.20;3.45;;;;;;;;;;2072801;28;20030;-53
2024/02/06 02:57:08;;;;;;;6.45;4.45;;;;;;;;;;2079147;28;20128;-52
2024/02/06 02:58:09;;;;;;;5.55;3.50;;;;;;;;;;2080072;28;20032;-53
2024/02/06 02:59:10;;;;;;;6.38;4.32;;;;;;;;;;2074241;28;20014;-51
2024/02/06 03:00:12;;;;;;;6.53;3.83;;;;;;;;;;2074364;28;20026;-48
2024/02/06 03:01:13;;;;;;;6.65;4.03;;;;;;;;;;2079249;28;20112;-51
2024/02/06 03:02:15;;;;;;;6.10;4.10;;;;;;;;;;2081597;28;20032;-52
2024/02/06 03:03:16;;;;;;;6.88;4.20;;;;;;;;;;2082172;28;20037;-52
2024/02/06 03:04:17;;;;;;;9.02;4.43;;;;;;;;;;2082340;28;20033;-53
2024/02/06 03:05:19;;;;;;;6.60;3.95;;;;;;;;;;2081538;28;20029;-53
2024/02/06 03:06:20;;;;;;;7.38;3.92;;;;;;;;;;2081246;28;20407;-52
2024/02/06 03:07:22;;;;;;;10.55;4.57;;;;;;;;;;2082252;28;20017;-52
2024/02/06 03:08:23;;;;;;;8.23;4.30;;;;;;;;;;2081972;28;20100;-46
2024/02/06 03:09:24;;;;;;;7.47;4.20;;;;;;;;;;2081380;28;20025;-47
2024/02/06 03:10:25;;;;;;;7.25;3.80;;;;;;;;;;2081686;28;20456;-46
2024/02/06 03:11:27;;;;;;;7.72;4.28;;;;;;;;;;2081578;28;20020;-45
2024/02/06 03:12:31;;;;;;;8.02;4.07;;;;;;;;;;2082281;28;20026;-44
2024/02/06 03:13:33;;;;;;;6.30;4.15;;;;;;;;;;2082107;28;20658;-45
2024/02/06 03:14:34;;;;;;;7.70;3.85;;;;;;;;;;2081579;28;20033;-45
2024/02/06 03:15:35;;;;;;;7.90;4.00;;;;;;;;;;2081529;28;20109;-45
2024/02/06 03:16:38;;;;;;;6.57;4.13;;;;;;;;;;2081170;28;20021;-44
2024/02/06 03:17:39;;;;;;;6.55;3.75;;;;;;;;;;2082251;28;20127;-53
2024/02/06 03:18:40;;;;;;;9.27;4.03;;;;;;;;;;2081508;28;20021;-52
2024/02/06 03:19:42;;;;;;;6.10;3.50;;;;;;;;;;2081632;28;20021;-52
2024/02/06 03:20:43;;;;;;;6.38;3.92;;;;;;;;;;2079369;28;20026;-51
2024/02/06 03:21:44;;;;;;;6.18;3.60;;;;;;;;;;2081987;28;20037;-53
2024/02/06 03:22:46;;;;;;;6.68;3.90;;;;;;;;;;2081167;28;20496;-54
2024/02/06 03:23:47;;;;;;;6.38;3.78;;;;;;;;;;2081452;28;20029;-45
2024/02/06 03:24:48;;;;;;;8.13;4.43;;;;;;;;;;2080708;28;20108;-46
2024/02/06 03:25:49;;;;;;;5.97;3.65;;;;;;;;;;2081928;28;20053;-44
2024/02/06 03:26:51;;;;;;;7.60;4.50;;;;;;;;;;2082053;28;20025;-45
2024/02/06 03:27:52;;;;;;;8.63;4.70;;;;;;;;;;2079062;28;20480;-45
2024/02/06 03:28:55;;;;;;;6.75;3.67;;;;;;;;;;2079127;28;20045;-46
2024/02/06 03:29:57;;;;;;;7.90;3.72;;;;;;;;;;2081431;28;20072;-46
2024/02/06 03:30:59;;;;;;;8.02;3.97;;;;;;;;;;2078093;28;20056;-45
2024/02/06 03:32:00;;;;;;;8.60;4.20;;;;;;;;;;2075870;28;20037;-45
2024/02/06 03:33:02;;;;;;;6.38;3.63;;;;;;;;;;2081797;28;20115;-46
2024/02/06 03:34:03;;;;;;;6.75;3.45;;;;;;;;;;2078873;28;20116;-46
2024/02/06 03:35:05;;;;;;;5.35;3.58;;;;;;;;;;2081589;28;20029;-45
2024/02/06 03:36:07;;;;;;;5.35;4.03;;;;;;;;;;2081904;28;20029;-45
2024/02/06 03:37:08;;;;;;;5.63;3.47;;;;;;;;;;2081602;28;20017;-45
2024/02/06 03:38:09;;;;;;;6.63;3.83;;;;;;;;;;2081341;28;20025;-46
2024/02/06 03:39:12;;;;;;;5.75;3.83;;;;;;;;;;2081175;28;20036;-45
2024/02/06 03:40:13;;;;;;;7.55;3.55;;;;;;;;;;2078719;28;20037;-45
2024/02/06 03:41:14;;;;;;;7.80;4.28;;;;;;;;;;2082036;28;20101;-44
2024/02/06 03:42:15;;;;;;;8.73;4.38;;;;;;;;;;2081494;28;20503;-44
2024/02/06 03:43:17;;;;;;;5.45;3.20;;;;;;;;;;2080799;28;20504;-47
2024/02/06 03:44:18;;;;;;;6.43;3.78;;;;;;;;;;2079899;28;20411;-44
2024/02/06 03:45:19;;;;;;;5.85;3.60;;;;;;;;;;2081546;28;20025;-44
2024/02/06 03:46:20;;;;;;;6.18;3.70;;;;;;;;;;2081357;28;20037;-47
2024/02/06 03:47:22;;;;;;;5.65;3.45;;;;;;;;;;2081309;28;20553;-46
2024/02/06 03:48:23;;;;;;;6.07;3.50;;;;;;;;;;2081488;28;20066;-46
2024/02/06 03:49:24;;;;;;;7.60;3.88;;;;;;;;;;2081872;28;20026;-44
2024/02/06 03:50:26;;;;;;;6.18;3.65;;;;;;;;;;2081769;28;20097;-46
2024/02/06 03:51:27;;;;;;;5.97;3.72;;;;;;;;;;2078834;28;20017;-46
2024/02/06 03:52:28;;;;;;;6.05;3.80;;;;;;;;;;2081581;28;20041;-47
2024/02/06 03:53:30;;;;;;;8.30;3.78;;;;;;;;;;2081379;28;20048;-46
2024/02/06 03:54:31;;;;;;;6.28;3.42;;;;;;;;;;2081248;28;20044;-46
2024/02/06 03:55:32;;;;;;;7.30;4.18;;;;;;;;;;2080934;28;20029;-46
2024/02/06 03:56:33;;;;;;;6.20;3.90;;;;;;;;;;2082049;28;20068;-49
2024/02/06 03:57:35;;;;;;;7.97;4.38;;;;;;;;;;2088396;28;20376;-46
2024/02/06 03:58:36;;;;;;;6.03;3.63;;;;;;;;;;2089127;28;20055;-46
2024/02/06 03:59:39;;;;;;;8.35;4.35;;;;;;;;;;2090222;28;20114;-47
2024/02/06 04:00:41;;;;;;;6.15;3.90;;;;;;;;;;2083960;28;20021;-46
2024/02/06 04:01:44;;;;;;;6.28;4.05;;;;;;;;;;2089605;28;20083;-46
2024/02/06 04:02:45;;;;;;;10.52;4.50;;;;;;;;;;2082654;28;20484;-46
2024/02/06 04:03:46;;;;;;;10.27;4.35;;;;;;;;;;2080720;28;20112;-45
2024/02/06 04:04:48;;;;;;;8.57;3.92;;;;;;;;;;2082800;28;20615;-47
2024/02/06 04:05:49;;;;;;;9.68;4.47;;;;;;;;;;2090056;28;20101;-45
2024/02/06 04:06:51;;;;;;;9.05;3.88;;;;;;;;;;2084056;28;20021;-45
2024/02/06 04:07:52;;;;;;;7.97;3.78;;;;;;;;;;2081483;28;20025;-45
2024/02/06 04:08:53;;;;;;;6.60;3.72;;;;;;;;;;2081690;28;20690;-45
2024/02/06 04:09:54;;;;;;;8.25;4.57;;;;;;;;;;2080952;28;20032;-45
2024/02/06 04:10:59;;;;;;;10.77;4.20;;;;;;;;;;2081767;28;20075;-45
2024/02/06 04:12:00;;;;;;;5.78;4.00;;;;;;;;;;2081682;28;20361;-46
2024/02/06 04:13:01;;;;;;;8.25;3.72;;;;;;;;;;2081298;28;20028;-45
2024/02/06 04:14:03;;;;;;;6.97;3.83;;;;;;;;;;2088708;28;20100;-45
2024/02/06 04:15:04;;;;;;;7.95;4.10;;;;;;;;;;2082811;28;20064;-46
2024/02/06 04:16:06;;;;;;;8.00;3.70;;;;;;;;;;2073579;28;20029;-46
2024/02/06 04:17:08;;;;;;;5.30;3.88;;;;;;;;;;2073682;28;20480;-45
2024/02/06 04:18:09;;;;;;;7.05;3.88;;;;;;;;;;2075367;28;20020;-46
2024/02/06 04:19:11;;;;;;;5.07;3.33;;;;;;;;;;2081752;28;20021;-45
2024/02/06 04:20:12;;;;;;;7.53;4.00;;;;;;;;;;2075590;28;20024;-46
2024/02/06 04:21:14;;;;;;;8.48;4.18;;;;;;;;;;2065193;28;20489;-45
2024/02/06 04:22:15;;;;;;;6.80;4.22;;;;;;;;;;2081027;28;20013;-46
2024/02/06 04:23:16;;;;;;;6.13;4.05;;;;;;;;;;2081375;28;20092;-45
2024/02/06 04:24:19;;;;;;;4.68;3.55;;;;;;;;;;2081496;28;20487;-44
2024/02/06 04:25:20;;;;;;;6.88;3.90;;;;;;;;;;2073827;28;20033;-46
2024/02/06 04:26:22;;;;;;;6.90;3.95;;;;;;;;;;2075913;28;20014;-45
2024/02/06 04:27:23;;;;;;;6.97;3.58;;;;;;;;;;2081556;28;20480;-45
2024/02/06 04:28:24;;;;;;;6.53;3.78;;;;;;;;;;2081200;28;20092;-46
2024/02/06 04:29:25;;;;;;;4.97;3.35;;;;;;;;;;2081254;28;20052;-46
2024/02/06 04:30:28;;;;;;;5.72;3.65;;;;;;;;;;2083197;28;20024;-45
2024/02/06 04:31:30;;;;;;;8.13;4.10;;;;;;;;;;2089736;28;20024;-46
2024/02/06 04:32:31;;;;;;;7.05;3.88;;;;;;;;;;2083138;28;20366;-45
2024/02/06 04:33:33;;;;;;;5.65;3.78;;;;;;;;;;2080211;28;20018;-44
2024/02/06 04:34:34;;;;;;;7.18;4.00;;;;;;;;;;2073430;28;20480;-46
2024/02/06 04:35:36;;;;;;;7.10;4.00;;;;;;;;;;2073239;28;20042;-46
2024/02/06 04:36:37;;;;;;;6.55;3.65;;;;;;;;;;2072646;28;20633;-44
2024/02/06 04:37:39;;;;;;;8.85;3.55;;;;;;;;;;2077413;28;20052;-45
2024/02/06 04:38:40;;;;;;;5.65;3.17;;;;;;;;;;2073056;28;20105;-46
2024/02/06 04:39:41;;;;;;;7.78;3.75;;;;;;;;;;2073477;28;20021;-45
2024/02/06 04:40:43;;;;;;;7.07;3.80;;;;;;;;;;2073203;28;20428;-46
2024/02/06 04:41:44;;;;;;;5.88;3.70;;;;;;;;;;2074919;28;20373;-45
2024/02/06 04:42:45;;;;;;;6.93;3.92;;;;;;;;;;2081615;28;20014;-46
2024/02/06 04:43:47;;;;;;;6.45;4.28;;;;;;;;;;2076011;28;20461;-46
2024/02/06 04:44:48;;;;;;;6.65;3.95;;;;;;;;;;2073684;28;20026;-45
2024/02/06 04:45:49;;;;;;;6.90;4.18;;;;;;;;;;2081377;28;20022;-45
2024/02/06 04:46:52;;;;;;;5.85;3.50;;;;;;;;;;2081379;28;20083;-47
2024/02/06 04:47:54;;;;;;;7.00;4.13;;;;;;;;;;2079813;28;20061;-46
2024/02/06 04:48:55;;;;;;;6.93;3.90;;;;;;;;;;2065028;28;20022;-46
2024/02/06 04:49:57;;;;;;;4.68;3.35;;;;;;;;;;2079589;28;20033;-46
2024/02/06 04:50:59;;;;;;;8.00;4.35;;;;;;;;;;2081302;28;20032;-45
2024/02/06 04:52:00;;;;;;;6.05;3.50;;;;;;;;;;2081383;28;20040;-46
2024/02/06 04:53:03;;;;;;;4.55;3.25;;;;;;;;;;2079771;28;20472;-47
2024/02/06 04:54:05;;;;;;;7.13;3.88;;;;;;;;;;2074862;28;20026;-47
2024/02/06 04:55:07;;;;;;;7.50;3.53;;;;;;;;;;2075908;28;20029;-45
2024/02/06 04:56:08;;;;;;;5.38;3.58;;;;;;;;;;2077725;28;20028;-45
2024/02/06 04:57:10;;;;;;;8.27;4.05;;;;;;;;;;2072753;28;20030;-45
2024/02/06 04:58:11;;;;;;;7.43;4.10;;;;;;;;;;2079900;28;20021;-45
2024/02/06 04:59:13;;;;;;;11.50;5.20;;;;;;;;;;2076848;28;20029;-46
2024/02/06 05:00:15;;;;;;;11.00;5.90;;;;;;;;;;2073366;28;20104;-46
2024/02/06 05:01:17;;;;;;;12.07;5.70;;;;;;;;;;2076972;28;20028;-44
2024/02/06 05:02:18;;;;;;;10.05;5.32;;;;;;;;;;2075413;28;20010;-44
2024/02/06 05:03:19;;;;;;;8.80;4.38;;;;;;;;;;2074512;28;20408;-45
2024/02/06 05:04:21;;;;;;;8.23;4.72;;;;;;;;;;2077213;28;20041;-44
2024/02/06 05:05:23;;;;;;;7.72;4.00;;;;;;;;;;2089306;28;20028;-46
2024/02/06 05:06:24;;;;;;;7.43;4.40;;;;;;;;;;2081003;28;20006;-46
2024/02/06 05:07:25;;;;;;;11.13;4.40;;;;;;;;;;2072458;28;20020;-45
2024/02/06 05:08:26;;;;;;;10.35;4.18;;;;;;;;;;2072423;28;20154;-47
2024/02/06 05:09:28;;;;;;;7.15;4.13;;;;;;;;;;2073208;28;20037;-47
2024/02/06 05:10:29;;;;;;;7.93;3.95;;;;;;;;;;2073186;28;20099;-44
2024/02/06 05:11:30;;;;;;;5.80;4.13;;;;;;;;;;2073214;28;20071;-45
2024/02/06 05:12:32;;;;;;;8.68;4.07;;;;;;;;;;2073687;28;20018;-44
2024/02/06 05:13:33;;;;;;;6.32;4.00;;;;;;;;;;2073008;28;20080;-44
2024/02/06 05:14:36;;;;;;;13.65;4.22;;;;;;;;;;2077616;28;20017;-52
2024/02/06 05:15:38;;;;;;;7.20;4.00;;;;;;;;;;2080640;28;20098;-51
2024/02/06 05:16:40;;;;;;;7.05;4.43;;;;;;;;;;2072397;28;20408;-54
2024/02/06 05:17:41;;;;;;;7.32;4.22;;;;;;;;;;2075820;28;20026;-52
2024/02/06 05:18:42;;;;;;;8.18;4.38;;;;;;;;;;2081104;28;20017;-52
2024/02/06 05:19:43;;;;;;;7.47;4.13;;;;;;;;;;2074102;28;20033;-52
2024/02/06 05:20:45;;;;;;;6.07;3.83;;;;;;;;;;2073402;28;20013;-48
2024/02/06 05:21:46;;;;;;;5.82;4.22;;;;;;;;;;2071673;28;20030;-51
2024/02/06 05:22:48;;;;;;;7.35;3.67;;;;;;;;;;2077811;28;20021;-50
2024/02/06 05:23:49;;;;;;;6.10;3.80;;;;;;;;;;2073833;28;20026;-52
2024/02/06 05:24:50;;;;;;;5.85;3.70;;;;;;;;;;2081064;28;20029;-53
2024/02/06 05:25:51;;;;;;;9.35;4.05;;;;;;;;;;2080007;28;20018;-54
2024/02/06 05:26:53;;;;;;;8.20;4.00;;;;;;;;;;2080642;28;20024;-53
2024/02/06 05:27:56;;;;;;;8.80;4.10;;;;;;;;;;2080692;28;20029;-54
2024/02/06 05:28:58;;;;;;;10.30;4.10;;;;;;;;;;2080322;28;20028;-51
2024/02/06 05:30:04;;;;;;;7.18;3.65;;;;;;;;;;2080286;28;20475;-52
2024/02/06 05:31:05;;;;;;;7.22;4.28;;;;;;;;;;2080856;28;20032;-51
2024/02/06 05:32:09;;;;;;;5.90;3.83;;;;;;;;;;2078426;28;20033;-53
2024/02/06 05:33:10;;;;;;;8.75;4.80;;;;;;;;;;2074787;28;20105;-53
2024/02/06 05:34:11;;;;;;;6.32;4.22;;;;;;;;;;2077681;28;20432;-52
2024/02/06 05:35:13;;;;;;;8.07;4.43;;;;;;;;;;2074366;28;20362;-52
2024/02/06 05:36:14;;;;;;;10.27;4.30;;;;;;;;;;2080770;28;20044;-54
2024/02/06 05:37:16;;;;;;;7.47;3.80;;;;;;;;;;2080020;28;20026;-50
2024/02/06 05:38:18;;;;;;;8.00;4.70;;;;;;;;;;2073217;28;20053;-51
2024/02/06 05:39:19;;;;;;;8.07;4.18;;;;;;;;;;2075415;28;20072;-52
2024/02/06 05:40:21;;;;;;;7.22;4.20;;;;;;;;;;2075501;28;20032;-51
2024/02/06 05:41:22;;;;;;;7.35;4.55;;;;;;;;;;2080574;28;20013;-52
2024/02/06 05:42:23;;;;;;;6.57;3.67;;;;;;;;;;2077121;28;20114;-52
2024/02/06 05:43:24;;;;;;;9.25;4.68;;;;;;;;;;2073105;28;20555;-54
2024/02/06 05:44:26;;;;;;;7.95;4.53;;;;;;;;;;2076874;28;20022;-53
2024/02/06 05:45:27;;;;;;;7.00;4.40;;;;;;;;;;2076813;28;20098;-54
2024/02/06 05:46:28;;;;;;;6.20;3.90;;;;;;;;;;2072531;28;20065;-53
2024/02/06 05:47:29;;;;;;;8.63;4.72;;;;;;;;;;2072738;28;20010;-51
2024/02/06 05:48:31;;;;;;;8.05;4.40;;;;;;;;;;2075450;28;20099;-51
2024/02/06 05:49:33;;;;;;;8.82;4.78;;;;;;;;;;2072798;28;20022;-52
2024/02/06 05:50:34;;;;;;;10.55;4.40;;;;;;;;;;2078989;28;20040;-52
2024/02/06 05:51:35;;;;;;;7.57;4.65;;;;;;;;;;2078841;28;20021;-49
2024/02/06 05:52:36;;;;;;;7.65;4.03;;;;;;;;;;2076268;28;20022;-50
2024/02/06 05:53:38;;;;;;;6.53;4.25;;;;;;;;;;2079534;28;20450;-53
2024/02/06 05:54:39;;;;;;;8.45;4.40;;;;;;;;;;2072336;28;20088;-53
2024/02/06 05:55:40;;;;;;;6.82;4.55;;;;;;;;;;2079128;28;20021;-49
2024/02/06 05:56:41;;;;;;;7.72;4.70;;;;;;;;;;2079731;28;20037;-51
2024/02/06 05:57:43;;;;;;;9.57;4.13;;;;;;;;;;2075848;28;20112;-52
2024/02/06 05:58:44;;;;;;;8.23;5.03;;;;;;;;;;2075712;28;20010;-51
2024/02/06 05:59:45;;;;;;;7.70;4.43;;;;;;;;;;2077484;28;20080;-49
2024/02/06 06:00:46;;;;;;;10.27;4.35;;;;;;;;;;2079613;28;20448;-52
2024/02/06 06:01:48;;;;;;;7.35;4.28;;;;;;;;;;2080608;28;20384;-51
2024/02/06 06:02:49;;;;;;;7.18;4.03;;;;;;;;;;2080490;28;20403;-53
2024/02/06 06:03:50;;;;;;;7.28;4.30;;;;;;;;;;2078955;28;20503;-50
2024/02/06 06:04:51;;;;;;;6.55;3.88;;;;;;;;;;2084643;28;20024;-54
2024/02/06 06:05:53;;;;;;;6.22;3.90;;;;;;;;;;2089262;28;20052;-51
2024/02/06 06:06:54;;;;;;;6.55;4.20;;;;;;;;;;2080922;28;20515;-53
2024/02/06 06:07:55;;;;;;;6.18;3.50;;;;;;;;;;2080809;28;20026;-53